Time;durP1;ratioP1;P1;durP2;ratioP2;P2;SDS_P1;SDS_P2;PMS_P1;PMS_P2;Temp;Humidity;BMP_temperature;BMP_pressure;BME280_temperature;BME280_humidity;BME280_pressure;Samples;Min_cycle;Max_cycle;Signal;HPM_P1;HPM_P2
2021/11/14 00:02:22;;;;;;;33.35;22.40;;;;;;;6.56;75.48;97949.97;10523713;28;20529;-78
2021/11/14 00:07:44;;;;;;;34.13;22.98;;;;;;;6.57;75.13;97952.22;10534630;28;20044;-77
2021/11/14 00:13:05;;;;;;;32.92;22.17;;;;;;;6.51;75.22;97954.44;10530373;28;20040;-78
2021/11/14 00:18:27;;;;;;;33.67;23.13;;;;;;;6.40;75.48;97948.59;10516634;28;20036;-78
2021/11/14 00:23:48;;;;;;;37.03;23.33;;;;;;;6.44;75.55;97948.94;10530672;28;20055;-78
2021/11/14 00:29:10;;;;;;;34.65;22.92;;;;;;;6.51;75.49;97945.41;10516038;28;20090;-78
2021/11/14 00:34:34;;;;;;;37.95;23.63;;;;;;;6.55;75.74;97960.34;10515823;28;20509;-77
2021/11/14 00:39:55;;;;;;;35.88;23.23;;;;;;;6.60;75.76;97956.63;10515421;28;20128;-77
2021/11/14 00:45:16;;;;;;;36.60;24.85;;;;;;;6.60;75.91;97962.16;10515489;28;20036;-77
2021/11/14 00:50:43;;;;;;;34.83;23.85;;;;;;;6.54;75.76;97964.41;10529088;28;20379;-78
2021/11/14 00:56:04;;;;;;;37.85;24.23;;;;;;;6.59;75.84;97971.78;10515856;28;20394;-77
2021/11/14 01:01:25;;;;;;;36.13;23.77;;;;;;;6.59;75.67;97977.34;10514317;28;20059;-78
2021/11/14 01:06:49;;;;;;;35.72;23.45;;;;;;;6.58;75.73;97964.78;10528963;28;20071;-78
2021/11/14 01:12:10;;;;;;;41.53;25.35;;;;;;;6.56;76.11;97963.84;10528271;28;20041;-78
2021/11/14 01:17:31;;;;;;;47.78;29.05;;;;;;;6.58;75.82;97969.59;10513929;28;20074;-77
2021/11/14 01:22:52;;;;;;;47.95;28.00;;;;;;;6.53;75.98;97964.97;10512595;28;20094;-78
2021/11/14 01:28:13;;;;;;;40.90;25.38;;;;;;;6.48;76.11;97969.44;10527704;28;20390;-78
2021/11/14 01:33:35;;;;;;;39.70;23.65;;;;;;;6.48;76.08;97977.78;10527548;28;20513;-77
2021/11/14 01:38:56;;;;;;;38.78;23.98;;;;;;;6.54;75.82;97972.72;10499350;28;20043;-78
2021/11/14 01:44:17;;;;;;;34.13;22.48;;;;;;;6.58;76.03;97975.13;10512999;28;20051;-78
2021/11/14 01:49:38;;;;;;;34.63;23.15;;;;;;;6.63;75.81;97981.75;10513002;28;20122;-78
2021/11/14 01:54:59;;;;;;;32.15;22.10;;;;;;;6.63;76.08;97978.97;10513161;28;20040;-77
2021/11/14 02:00:21;;;;;;;33.40;22.50;;;;;;;6.65;75.99;97977.09;10513136;28;20036;-77
2021/11/14 02:05:42;;;;;;;35.58;23.13;;;;;;;6.64;76.00;97980.44;10526151;28;20055;-77
2021/11/14 02:11:04;;;;;;;33.38;21.88;;;;;;;6.57;76.03;97968.84;10511848;28;20044;-78
2021/11/14 02:16:26;;;;;;;29.05;19.95;;;;;;;6.50;76.10;97979.97;10511945;28;20551;-77
2021/11/14 02:21:47;;;;;;;34.80;23.10;;;;;;;6.44;76.12;97977.41;10525713;28;20044;-77
2021/11/14 02:27:09;;;;;;;39.05;23.40;;;;;;;6.45;76.38;97978.88;10525794;28;20077;-78
2021/11/14 02:32:30;;;;;;;36.55;23.83;;;;;;;6.49;76.03;97982.00;10511385;28;20044;-78
2021/11/14 02:38:10;;;;;;;34.38;22.88;;;;;;;6.54;76.29;97985.88;10513634;28;20051;-78
2021/11/14 02:43:32;;;;;;;35.60;24.02;;;;;;;6.51;76.23;97992.53;10525322;28;20509;-78
2021/11/14 02:48:53;;;;;;;39.38;24.00;;;;;;;6.51;76.20;97981.44;10510905;28;20041;-77
2021/11/14 02:54:14;;;;;;;36.97;24.58;;;;;;;6.54;76.74;97997.69;10525080;28;20519;-78
2021/11/14 02:59:36;;;;;;;34.67;23.48;;;;;;;6.57;76.28;98002.13;10510771;28;20056;-78
2021/11/14 03:04:57;;;;;;;40.58;24.95;;;;;;;6.49;76.33;98006.97;10510386;28;20052;-78
2021/11/14 03:10:22;;;;;;;36.55;23.63;;;;;;;6.52;76.18;98010.66;10524412;28;20401;-78
2021/11/14 03:15:47;;;;;;;35.65;23.35;;;;;;;6.54;76.04;98014.34;10523712;28;20048;-78
2021/11/14 03:21:08;;;;;;;39.13;24.48;;;;;;;6.61;76.24;98018.38;10539119;28;20040;-78
2021/11/14 03:26:30;;;;;;;40.83;27.52;;;;;;;6.58;76.11;98008.41;10524782;28;20383;-78
2021/11/14 03:31:51;;;;;;;38.10;24.98;;;;;;;6.48;76.41;98015.84;10524161;28;20075;-77
2021/11/14 03:37:18;;;;;;;36.67;24.73;;;;;;;6.49;76.07;98029.16;10524068;28;20387;-78
2021/11/14 03:42:39;;;;;;;33.13;23.73;;;;;;;6.46;76.18;98035.81;10510893;28;20414;-78
2021/11/14 03:48:00;;;;;;;35.08;24.10;;;;;;;6.40;76.04;98043.59;10517488;28;20478;-78
2021/11/14 03:53:21;;;;;;;32.63;22.27;;;;;;;6.35;75.90;98047.31;10517323;28;20534;-77
2021/11/14 03:58:42;;;;;;;33.95;23.65;;;;;;;6.30;75.97;98045.50;10532018;28;20213;-78
2021/11/14 04:04:03;;;;;;;33.13;22.92;;;;;;;6.26;76.08;98040.31;10517042;28;20059;-77
2021/11/14 04:09:24;;;;;;;34.22;22.67;;;;;;;6.24;76.27;98045.69;10516617;28;20036;-78
2021/11/14 04:14:45;;;;;;;35.55;23.52;;;;;;;6.18;76.62;98039.63;10516587;28;20093;-77
2021/11/14 04:20:09;;;;;;;36.85;25.75;;;;;;;6.16;76.96;98055.31;10530378;28;20040;-78
2021/11/14 04:25:29;;;;;;;36.25;24.58;;;;;;;6.13;76.62;98042.56;10516478;28;20048;-78
2021/11/14 04:30:50;;;;;;;35.40;24.15;;;;;;;6.08;76.46;98062.88;10515737;28;20040;-78
2021/11/14 04:36:11;;;;;;;37.45;25.25;;;;;;;6.12;76.48;98055.69;10516351;28;20040;-76
2021/11/14 04:41:32;;;;;;;38.08;25.13;;;;;;;6.07;76.46;98062.16;10515480;28;20048;-78
2021/11/14 04:46:53;;;;;;;34.22;24.38;;;;;;;6.11;76.33;98061.78;10515295;28;20067;-78
2021/11/14 04:52:14;;;;;;;38.75;25.73;;;;;;;6.13;76.47;98065.47;10500822;28;20050;-77
2021/11/14 04:57:35;;;;;;;38.30;24.13;;;;;;;6.19;76.53;98068.81;10514628;28;20044;-77
2021/11/14 05:02:56;;;;;;;36.65;24.10;;;;;;;6.22;76.92;98076.00;10528671;28;20063;-77
2021/11/14 05:08:17;;;;;;;37.85;25.17;;;;;;;6.31;76.59;98091.31;10529030;28;20036;-78
2021/11/14 05:13:38;;;;;;;36.33;24.10;;;;;;;6.33;76.76;98091.50;10514707;28;20048;-78
2021/11/14 05:18:59;;;;;;;37.00;25.17;;;;;;;6.39;76.99;98094.09;10514231;28;20441;-78
2021/11/14 05:24:20;;;;;;;36.42;24.13;;;;;;;6.40;76.31;98099.06;10514238;28;20048;-78
2021/11/14 05:29:40;;;;;;;35.90;24.52;;;;;;;6.44;76.46;98099.41;10527592;28;20071;-77
2021/11/14 05:35:01;;;;;;;35.08;23.73;;;;;;;6.44;76.15;98115.31;10513436;28;20040;-78
2021/11/14 05:40:22;;;;;;;36.72;24.27;;;;;;;6.41;76.40;98110.91;10541248;28;20044;-78
2021/11/14 05:45:48;;;;;;;31.05;21.77;;;;;;;6.41;76.45;98117.19;10486609;28;20041;-77
2021/11/14 05:51:08;;;;;;;36.15;24.20;;;;;;;6.36;76.56;98136.78;10456873;28;20044;-78
2021/11/14 05:56:29;;;;;;;34.35;23.83;;;;;;;6.43;76.39;98138.81;10485209;28;20048;-77
2021/11/14 06:02:09;;;;;;;34.90;23.70;;;;;;;6.50;76.48;98152.66;10484697;28;20155;-77
2021/11/14 06:07:30;;;;;;;34.10;22.80;;;;;;;6.52;76.21;98163.94;10475171;28;20041;-77
2021/11/14 06:12:51;;;;;;;37.05;24.30;;;;;;;6.52;76.38;98165.97;10442597;28;20101;-77
2021/11/14 06:18:11;;;;;;;44.10;27.75;;;;;;;6.48;76.67;98171.91;10456333;28;20037;-76
2021/11/14 06:23:32;;;;;;;51.65;30.25;;;;;;;6.50;77.00;98185.19;10456118;28;20045;-78
2021/11/14 06:28:53;;;;;;;53.45;31.98;;;;;;;6.53;76.82;98190.38;10470349;28;20394;-77
2021/11/14 06:34:14;;;;;;;51.03;32.28;;;;;;;6.57;77.04;98201.84;10456133;28;20040;-78
2021/11/14 06:39:39;;;;;;;57.63;33.10;;;;;;;6.63;76.50;98206.44;10457191;28;20036;-78
2021/11/14 06:45:00;;;;;;;53.83;31.17;;;;;;;6.67;76.57;98213.09;10469849;28;20048;-77
2021/11/14 06:50:21;;;;;;;52.60;30.80;;;;;;;6.72;76.45;98222.53;10455428;28;20041;-78
2021/11/14 06:55:41;;;;;;;55.35;32.42;;;;;;;6.76;76.34;98226.41;10455382;28;20036;-77
2021/11/14 07:01:02;;;;;;;54.28;32.67;;;;;;;6.81;76.69;98235.81;10469448;28;20067;-78
2021/11/14 07:06:23;;;;;;;56.90;33.92;;;;;;;6.77;76.80;98246.56;10455715;28;20127;-78
2021/11/14 07:11:45;;;;;;;53.40;32.08;;;;;;;6.77;76.68;98255.63;10455425;28;20053;-77
2021/11/14 07:17:06;;;;;;;55.83;32.95;;;;;;;6.73;76.34;98257.28;10470942;28;20074;-78
2021/11/14 07:22:27;;;;;;;54.78;34.13;;;;;;;6.75;76.48;98263.00;10463906;28;20072;-77
2021/11/14 07:27:50;;;;;;;50.75;32.55;;;;;;;6.77;76.46;98268.78;10465168;28;20067;-76
2021/11/14 07:33:10;;;;;;;50.45;31.55;;;;;;;6.88;76.62;98262.81;10462696;28;20071;-78
2021/11/14 07:38:32;;;;;;;49.28;31.67;;;;;;;6.97;76.28;98270.59;10476775;28;20119;-77
2021/11/14 07:43:52;;;;;;;56.17;33.35;;;;;;;6.98;76.20;98271.31;10490256;28;20044;-78
2021/11/14 07:49:15;;;;;;;51.00;31.83;;;;;;;7.03;76.12;98271.13;10476165;28;20041;-77
2021/11/14 07:54:36;;;;;;;49.60;29.85;;;;;;;7.11;75.95;98277.38;10503289;28;20044;-77
2021/11/14 07:59:57;;;;;;;49.58;30.50;;;;;;;7.13;75.97;98280.34;10475545;28;20059;-78
2021/11/14 08:05:18;;;;;;;48.95;30.10;;;;;;;7.15;76.23;98285.34;10475014;28;20056;-77
2021/11/14 08:10:39;;;;;;;51.85;30.25;;;;;;;7.07;75.81;98290.19;10476033;28;20043;-76
2021/11/14 08:16:00;;;;;;;50.72;31.83;;;;;;;7.15;76.20;98299.25;10474974;28;20498;-78
2021/11/14 08:21:21;;;;;;;51.33;31.02;;;;;;;7.19;76.03;98305.16;10488712;28;20040;-78
2021/11/14 08:26:42;;;;;;;48.00;29.67;;;;;;;7.23;75.62;98301.97;10474917;28;20051;-76
2021/11/14 08:32:03;;;;;;;53.97;31.73;;;;;;;7.25;75.67;98314.03;10501640;28;20441;-77
2021/11/14 08:37:24;;;;;;;55.25;31.40;;;;;;;7.32;75.10;98327.13;10502120;28;20040;-76
2021/11/14 08:42:46;;;;;;;53.28;30.58;;;;;;;7.56;75.27;98328.56;10473991;28;20044;-76
2021/11/14 08:48:08;;;;;;;52.53;30.95;;;;;;;7.69;74.80;98341.47;10473949;28;20044;-76
2021/11/14 08:53:29;;;;;;;49.85;29.35;;;;;;;7.77;73.95;98342.19;10475378;28;20068;-75
2021/11/14 08:58:50;;;;;;;46.25;28.35;;;;;;;7.75;74.52;98336.47;10473582;28;20047;-76
2021/11/14 09:04:13;;;;;;;47.53;29.08;;;;;;;7.68;74.28;98340.75;10486718;28;20056;-76
2021/11/14 09:09:34;;;;;;;44.05;25.10;;;;;;;7.65;74.45;98347.44;10459089;28;20044;-75
2021/11/14 09:14:56;;;;;;;44.60;29.25;;;;;;;7.62;74.53;98356.13;10486519;28;20467;-77
2021/11/14 09:20:21;;;;;;;48.17;29.58;;;;;;;7.72;74.63;98360.56;10473743;28;20048;-77
2021/11/14 09:25:42;;;;;;;51.42;30.30;;;;;;;7.89;75.07;98365.47;10486242;28;20379;-78
2021/11/14 09:31:03;;;;;;;47.28;28.35;;;;;;;7.92;73.75;98369.94;10500024;28;20517;-75
2021/11/14 09:36:30;;;;;;;42.75;25.40;;;;;;;8.01;74.08;98369.34;10485593;28;20041;-76
2021/11/14 09:41:51;;;;;;;38.55;22.38;;;;;;;7.95;73.26;98370.84;10484963;28;20040;-75
2021/11/14 09:47:12;;;;;;;45.40;25.83;;;;;;;7.87;73.57;98372.91;10471029;28;20045;-75
2021/11/14 09:52:33;;;;;;;42.13;23.17;;;;;;;7.80;73.28;98368.13;10457009;28;20045;-74
2021/11/14 09:57:54;;;;;;;40.63;21.45;;;;;;;7.68;72.70;98376.88;10498578;28;20479;-77
2021/11/14 10:03:16;;;;;;;35.22;18.83;;;;;;;7.73;73.43;98369.63;10484865;28;20060;-77
2021/11/14 10:08:40;;;;;;;34.95;18.17;;;;;;;7.79;72.83;98367.38;10470647;28;20048;-77
2021/11/14 10:14:02;;;;;;;29.55;17.48;;;;;;;7.93;73.13;98370.69;10470870;28;20169;-76
2021/11/14 10:19:23;;;;;;;31.50;17.70;;;;;;;8.01;72.30;98382.50;10483924;28;20086;-75
2021/11/14 10:24:44;;;;;;;33.03;18.00;;;;;;;8.06;72.36;98372.47;10483945;28;20078;-74
2021/11/14 10:30:08;;;;;;;35.88;18.65;;;;;;;8.06;72.39;98378.75;10471102;28;20037;-77
2021/11/14 10:35:29;;;;;;;33.50;18.77;;;;;;;8.14;72.01;98365.56;10484014;28;20066;-77
2021/11/14 10:40:52;;;;;;;33.60;19.67;;;;;;;8.10;72.67;98367.97;10456684;28;20542;-76
2021/11/14 10:46:16;;;;;;;30.30;17.90;;;;;;;8.13;71.69;98360.56;10470204;28;20052;-74
2021/11/14 10:51:38;;;;;;;33.58;19.38;;;;;;;8.12;72.34;98359.84;10483201;28;20407;-75
2021/11/14 10:57:00;;;;;;;31.50;18.42;;;;;;;8.20;72.12;98366.09;10497198;28;20047;-78
2021/11/14 11:02:22;;;;;;;30.95;17.70;;;;;;;8.22;71.54;98373.88;10483460;28;20056;-76
2021/11/14 11:08:01;;;;;;;30.58;19.20;;;;;;;8.11;71.45;98363.94;10483334;28;20041;-78
2021/11/14 11:13:41;;;;;;;30.15;18.00;;;;;;;8.09;71.80;98372.06;10469309;28;20482;-77
2021/11/14 11:19:29;;;;;;;34.13;19.35;;;;;;;8.10;71.79;98379.09;10456582;28;20376;-79
2021/11/14 11:24:53;;;;;;;35.47;19.40;;;;;;;8.06;71.75;98378.03;10496835;28;20051;-78
2021/11/14 11:30:42;;;;;;;34.88;19.58;;;;;;;7.99;70.88;98380.28;10455655;28;20476;-77
2021/11/14 11:36:08;;;;;;;38.00;21.30;;;;;;;7.96;71.71;98392.53;10472375;28;20115;-79
2021/11/14 11:41:29;;;;;;;33.67;19.70;;;;;;;7.99;71.83;98383.03;10496733;28;20047;-78
2021/11/14 11:46:51;;;;;;;36.58;21.80;;;;;;;7.95;71.50;98385.47;10468500;28;20099;-80
2021/11/14 11:52:27;;;;;;;33.88;19.42;;;;;;;7.98;71.06;98384.34;10472897;28;20032;-79
2021/11/14 11:57:48;;;;;;;36.47;20.27;;;;;;;7.93;70.99;98393.66;10468903;28;20434;-79
2021/11/14 12:03:30;;;;;;;33.25;18.73;;;;;;;7.97;71.08;98393.25;10469022;28;20083;-78
2021/11/14 12:08:53;;;;;;;30.05;16.52;;;;;;;8.00;71.28;98381.75;10476165;28;20060;-78
2021/11/14 12:14:28;;;;;;;27.17;15.10;;;;;;;8.10;70.95;98390.22;10503409;28;20098;-79
2021/11/14 12:19:50;;;;;;;23.40;14.07;;;;;;;8.12;71.14;98375.78;10475875;28;20560;-78
2021/11/14 12:25:26;;;;;;;28.50;16.83;;;;;;;8.03;70.26;98393.81;10503001;28;20052;-79
2021/11/14 12:30:59;;;;;;;24.65;15.30;;;;;;;7.87;70.06;98393.09;10475682;28;20040;-80
2021/11/14 12:36:33;;;;;;;28.15;16.58;;;;;;;7.76;70.44;98396.28;10489067;28;20072;-78
2021/11/14 12:42:15;;;;;;;25.48;14.63;;;;;;;7.84;70.73;98399.78;10476615;28;20394;-80
2021/11/14 12:47:36;;;;;;;22.85;14.13;;;;;;;7.89;70.73;98403.66;10462766;28;20037;-79
2021/11/14 12:53:09;;;;;;;23.80;13.55;;;;;;;7.88;70.33;98402.19;10501757;28;20044;-79
2021/11/14 12:58:31;;;;;;;28.52;15.95;;;;;;;7.72;69.91;98404.25;10488023;28;20045;-79
2021/11/14 13:03:52;;;;;;;27.63;16.58;;;;;;;7.51;70.29;98418.38;10472932;28;20091;-78
2021/11/14 13:09:18;;;;;;;26.90;15.57;;;;;;;7.51;70.83;98415.59;10473554;28;20498;-79
2021/11/14 13:14:40;;;;;;;25.25;15.10;;;;;;;7.53;70.22;98421.38;10486946;28;20116;-80
2021/11/14 13:20:03;;;;;;;24.65;14.65;;;;;;;7.53;70.50;98435.25;10472801;28;20051;-79
2021/11/14 13:25:28;;;;;;;29.30;16.80;;;;;;;7.40;70.13;98438.97;10475591;28;20044;-82
2021/11/14 13:30:49;;;;;;;29.55;16.02;;;;;;;7.25;70.46;98441.03;10472724;28;20479;-80
2021/11/14 13:36:12;;;;;;;26.85;17.30;;;;;;;7.12;70.81;98436.38;10486158;28;20530;-79
2021/11/14 13:41:34;;;;;;;33.75;17.42;;;;;;;7.13;71.28;98446.19;10500695;28;20486;-80
2021/11/14 13:47:02;;;;;;;32.83;18.05;;;;;;;7.10;71.75;98448.03;10477597;28;20130;-79
2021/11/14 13:52:24;;;;;;;35.70;20.02;;;;;;;7.09;71.15;98449.34;10493618;28;20043;-80
2021/11/14 13:57:48;;;;;;;32.30;19.08;;;;;;;7.05;71.30;98448.97;10464082;28;20066;-77
2021/11/14 14:03:14;;;;;;;34.08;17.67;;;;;;;7.06;71.55;98450.44;10490725;28;20098;-79
2021/11/14 14:08:35;;;;;;;33.15;18.73;;;;;;;7.10;71.50;98459.16;10512623;28;20044;-80
2021/11/14 14:13:59;;;;;;;34.30;18.50;;;;;;;7.10;71.53;98459.16;10499801;28;20071;-78
2021/11/14 14:19:20;;;;;;;32.95;19.05;;;;;;;6.95;71.45;98456.38;10511856;28;20032;-78
2021/11/14 14:24:45;;;;;;;27.55;16.73;;;;;;;6.97;71.48;98464.88;10509522;28;20044;-78
2021/11/14 14:30:10;;;;;;;29.75;16.75;;;;;;;6.93;71.45;98470.03;10466907;28;20047;-77
2021/11/14 14:35:42;;;;;;;24.55;14.98;;;;;;;6.94;71.64;98482.63;10482645;28;20040;-77
2021/11/14 14:41:09;;;;;;;25.85;14.93;;;;;;;6.93;71.96;98481.13;10484280;28;20060;-78
2021/11/14 14:46:32;;;;;;;27.67;15.73;;;;;;;6.93;72.03;98475.59;10506306;28;20044;-78
2021/11/14 14:51:56;;;;;;;26.83;15.05;;;;;;;6.94;71.98;98477.06;10497394;28;20047;-77
2021/11/14 14:57:17;;;;;;;33.30;18.58;;;;;;;6.90;72.01;98471.16;10525026;28;20051;-76
2021/11/14 15:02:38;;;;;;;32.75;19.10;;;;;;;6.81;72.09;98482.78;10510479;28;20062;-76
2021/11/14 15:07:59;;;;;;;29.77;16.92;;;;;;;6.70;72.01;98489.44;10496711;28;20561;-76
2021/11/14 15:13:21;;;;;;;33.78;17.33;;;;;;;6.66;72.66;98489.06;10479540;28;20526;-79
2021/11/14 15:18:44;;;;;;;28.25;17.33;;;;;;;6.60;72.62;98491.25;10468577;28;20066;-77
2021/11/14 15:24:06;;;;;;;30.10;17.67;;;;;;;6.59;72.60;98503.63;10483149;28;20102;-75
2021/11/14 15:29:27;;;;;;;33.33;17.48;;;;;;;6.58;72.65;98502.91;10482331;28;20090;-76
2021/11/14 15:34:47;;;;;;;32.03;18.83;;;;;;;6.60;72.95;98505.13;10468299;28;20040;-76
2021/11/14 15:40:11;;;;;;;32.90;18.77;;;;;;;6.62;73.10;98510.84;10499997;28;20052;-77
2021/11/14 15:45:35;;;;;;;38.10;20.27;;;;;;;6.56;73.42;98513.81;10478312;28;20071;-78
2021/11/14 15:50:56;;;;;;;39.53;21.63;;;;;;;6.55;73.81;98515.06;10491397;28;20143;-77
2021/11/14 15:56:17;;;;;;;43.55;23.20;;;;;;;6.52;73.79;98521.00;10490820;28;20040;-76
2021/11/14 16:01:38;;;;;;;45.08;23.15;;;;;;;6.47;74.01;98522.66;10525641;28;20067;-76
2021/11/14 16:07:00;;;;;;;40.40;22.02;;;;;;;6.46;74.06;98532.22;10531483;28;20044;-77
2021/11/14 16:12:26;;;;;;;35.40;20.88;;;;;;;6.49;74.12;98544.28;10519122;28;20470;-79
2021/11/14 16:17:47;;;;;;;33.65;19.83;;;;;;;6.42;74.69;98542.22;10502703;28;20437;-80
2021/11/14 16:23:08;;;;;;;39.47;20.10;;;;;;;6.46;74.23;98550.91;10530506;28;20503;-79
2021/11/14 16:28:31;;;;;;;39.00;20.15;;;;;;;6.51;74.38;98563.88;10503267;28;20048;-78
2021/11/14 16:33:54;;;;;;;35.78;20.80;;;;;;;6.61;74.16;98567.63;10530065;28;20482;-79
2021/11/14 16:39:16;;;;;;;38.65;20.80;;;;;;;6.70;74.25;98574.69;10509382;28;20036;-82
2021/11/14 16:44:38;;;;;;;38.22;20.58;;;;;;;6.73;74.36;98579.13;10545213;28;20066;-81
2021/11/14 16:50:00;;;;;;;38.90;20.92;;;;;;;6.75;73.94;98573.78;11237308;22;20041;-82
2021/11/14 16:55:39;;;;;;;42.65;22.58;;;;;;;6.78;74.39;98570.66;12456135;22;20503;-79
2021/11/14 17:01:03;;;;;;;43.35;22.08;;;;;;;6.82;74.17;98570.28;10323397;28;20046;-80
2021/11/14 17:06:24;;;;;;;45.97;23.53;;;;;;;6.87;74.55;98577.72;10310018;28;20426;-80
2021/11/14 17:11:47;;;;;;;42.55;23.38;;;;;;;6.86;74.13;98574.22;10369196;22;20046;-83
2021/11/14 17:17:08;;;;;;;41.60;21.88;;;;;;;6.93;74.52;98585.88;10353320;28;20046;-79
2021/11/14 17:35:08;;;;;;;36.38;21.17;;;;;;;6.98;74.18;98591.28;11600785;23;20049;-82
2021/11/14 17:40:42;;;;;;;38.63;21.13;;;;;;;6.99;74.27;98592.75;11254735;23;20072;-81
2021/11/14 17:46:03;;;;;;;35.83;19.92;;;;;;;7.05;74.38;98600.91;10121091;29;20044;-81
2021/11/14 17:51:23;;;;;;;37.22;19.85;;;;;;;7.10;74.44;98603.50;10103427;29;20452;-80
2021/11/14 17:56:44;;;;;;;36.63;19.25;;;;;;;7.16;74.77;98608.91;10116038;29;20044;-81
2021/11/14 18:02:06;;;;;;;36.65;19.38;;;;;;;7.16;74.48;98601.31;10118906;29;20068;-80
2021/11/14 18:07:27;;;;;;;35.30;18.55;;;;;;;7.20;74.71;98614.09;10197080;23;20061;-79
2021/11/14 18:12:48;;;;;;;35.25;20.70;;;;;;;7.19;74.69;98618.91;10174877;23;20105;-81
2021/11/14 18:18:21;;;;;;;30.67;17.67;;;;;;;7.20;74.53;98625.19;10151429;29;20044;-80
2021/11/14 18:23:51;;;;;;;36.90;20.10;;;;;;;7.21;74.53;98623.91;10137563;29;20107;-82
2021/11/14 18:29:11;;;;;;;35.10;20.70;;;;;;;7.19;74.86;98618.91;10156870;29;20060;-81
2021/11/14 18:34:32;;;;;;;34.85;20.63;;;;;;;7.18;74.52;98623.72;10139726;29;20115;-79
2021/11/14 18:39:53;;;;;;;34.47;20.17;;;;;;;7.18;74.49;98626.50;10155476;29;20050;-80
2021/11/14 18:45:15;;;;;;;35.42;19.95;;;;;;;7.20;74.56;98625.94;10146450;29;20080;-81
2021/11/14 18:50:37;;;;;;;38.72;20.73;;;;;;;7.22;74.57;98639.28;10140925;29;20047;-81
2021/11/14 18:56:00;;;;;;;29.87;18.10;;;;;;;7.24;74.52;98642.22;10151904;29;20032;-82
2021/11/14 19:01:21;;;;;;;32.53;18.80;;;;;;;7.25;74.64;98644.47;10127330;29;20029;-79
2021/11/14 19:06:43;;;;;;;40.47;21.23;;;;;;;7.22;74.73;98642.03;10123347;29;20061;-79
2021/11/14 19:12:04;;;;;;;36.28;21.52;;;;;;;7.25;74.74;98646.53;10109439;29;20370;-79
2021/11/14 19:17:25;;;;;;;37.90;21.13;;;;;;;7.24;74.60;98650.56;10103653;29;20045;-80
2021/11/14 19:22:47;;;;;;;37.17;21.42;;;;;;;7.26;74.59;98648.00;10103637;29;20056;-79
2021/11/14 19:28:11;;;;;;;35.97;19.95;;;;;;;7.26;74.56;98657.06;10116186;29;20056;-79
2021/11/14 19:33:32;;;;;;;41.88;22.30;;;;;;;7.21;74.90;98665.56;10089947;29;20049;-79
2021/11/14 19:38:53;;;;;;;33.80;18.67;;;;;;;7.25;74.83;98671.50;10103252;29;20396;-80
2021/11/14 19:44:18;;;;;;;32.25;18.92;;;;;;;7.20;74.75;98669.63;10102871;29;20100;-80
2021/11/14 19:49:39;;;;;;;37.17;20.40;;;;;;;7.20;74.75;98675.19;10113251;29;20048;-82
2021/11/14 19:55:00;;;;;;;34.97;19.80;;;;;;;7.17;74.88;98672.22;10115701;29;20049;-81
2021/11/14 20:00:23;;;;;;;34.33;20.13;;;;;;;7.15;74.92;98674.06;10102610;29;20056;-80
2021/11/14 20:05:44;;;;;;;33.97;19.45;;;;;;;7.16;74.94;98665.19;10102448;29;20057;-80
2021/11/14 20:11:05;;;;;;;36.78;20.45;;;;;;;7.17;75.07;98669.44;10101654;29;20413;-79
2021/11/14 20:16:25;;;;;;;37.17;21.33;;;;;;;7.18;75.01;98665.38;10102595;29;20056;-79
2021/11/14 20:21:48;;;;;;;37.00;21.67;;;;;;;7.18;74.72;98670.91;10115166;29;20049;-80
2021/11/14 20:27:13;;;;;;;37.08;21.08;;;;;;;7.16;75.02;98670.00;10100958;29;20053;-79
2021/11/14 20:32:34;;;;;;;38.72;22.27;;;;;;;7.14;74.89;98669.78;10114521;29;20048;-79
2021/11/14 20:37:54;;;;;;;39.03;22.30;;;;;;;7.17;75.01;98666.66;10100974;29;20105;-78
2021/11/14 20:43:18;;;;;;;36.83;21.20;;;;;;;7.16;75.36;98670.00;10100843;29;20052;-80
2021/11/14 20:48:39;;;;;;;36.77;22.50;;;;;;;7.20;75.29;98680.72;10101097;29;20049;-79
2021/11/14 20:53:59;;;;;;;36.80;21.30;;;;;;;7.22;74.96;98680.91;10100266;29;20057;-80
2021/11/14 20:59:23;;;;;;;33.20;17.63;;;;;;;7.21;74.96;98696.09;10102544;29;20052;-79
2021/11/14 21:04:44;;;;;;;33.15;18.52;;;;;;;7.14;75.12;98692.75;10100635;29;20485;-79
2021/11/14 21:10:10;;;;;;;36.20;20.10;;;;;;;7.10;75.34;98686.81;10101200;29;20070;-78
2021/11/14 21:15:31;;;;;;;36.33;19.38;;;;;;;7.11;75.49;98684.78;10100814;29;20045;-81
2021/11/14 21:20:52;;;;;;;34.15;19.60;;;;;;;7.14;75.30;98692.00;10101251;29;20044;-80
2021/11/14 21:26:12;;;;;;;35.20;21.08;;;;;;;7.09;75.44;98681.81;10100286;29;20412;-80
2021/11/14 21:31:33;;;;;;;35.83;20.98;;;;;;;7.08;75.38;98692.16;10248477;23;20059;-82
2021/11/14 21:42:40;;;;;;;41.13;24.40;;;;;;;7.07;75.27;98695.50;10116009;29;20040;-80
2021/11/14 21:48:01;;;;;;;41.85;23.85;;;;;;;7.03;75.33;98681.97;10124416;29;20048;-80
2021/11/14 21:53:22;;;;;;;41.63;23.20;;;;;;;7.00;75.36;98679.53;10111187;29;20047;-79
2021/11/14 21:58:43;;;;;;;40.78;24.48;;;;;;;6.99;75.69;98687.13;10110902;29;20485;-79
2021/11/14 22:04:04;;;;;;;41.95;24.15;;;;;;;7.04;75.56;98700.09;10110846;29;20400;-78
2021/11/14 22:09:25;;;;;;;44.30;25.20;;;;;;;7.03;75.64;98701.38;10123535;29;20044;-80
2021/11/14 22:14:46;;;;;;;42.63;24.25;;;;;;;7.05;75.99;98703.63;10121627;29;20535;-78
2021/11/14 22:20:08;;;;;;;44.10;24.92;;;;;;;7.07;75.43;98698.28;10121666;29;20393;-79
2021/11/14 22:25:29;;;;;;;44.58;25.02;;;;;;;7.10;75.73;98697.16;10122237;29;20086;-79
2021/11/14 22:30:51;;;;;;;45.40;25.25;;;;;;;7.05;75.56;98700.88;10134422;29;20419;-78
2021/11/14 22:36:13;;;;;;;46.03;25.80;;;;;;;7.06;75.70;98705.13;10120992;29;20506;-80
2021/11/14 22:41:34;;;;;;;50.75;27.40;;;;;;;7.05;75.78;98709.94;10135506;29;20135;-80
2021/11/14 22:46:54;;;;;;;48.67;26.10;;;;;;;7.10;75.97;98699.94;10121894;29;20052;-80
2021/11/14 22:52:15;;;;;;;51.83;28.27;;;;;;;7.07;75.74;98712.91;10122193;29;20481;-79
2021/11/14 22:57:36;;;;;;;51.40;27.52;;;;;;;7.06;76.00;98705.88;10121883;29;20051;-80
2021/11/14 23:02:58;;;;;;;49.53;27.60;;;;;;;7.07;76.11;98712.16;10121750;29;20052;-80
2021/11/14 23:08:18;;;;;;;48.20;26.20;;;;;;;7.00;75.66;98704.53;10121838;29;20056;-78
2021/11/14 23:13:40;;;;;;;48.13;25.63;;;;;;;6.94;75.83;98710.22;10134468;29;20544;-80
2021/11/14 23:19:23;;;;;;;52.08;26.38;;;;;;;6.94;76.49;98713.00;10113949;29;20499;-80
2021/11/14 23:24:44;;;;;;;52.10;27.40;;;;;;;6.95;76.28;98717.28;10108742;29;20396;-79
2021/11/14 23:30:05;;;;;;;51.92;28.73;;;;;;;6.92;76.45;98715.59;10134241;29;20063;-80
2021/11/14 23:35:37;;;;;;;55.30;27.52;;;;;;;6.89;76.55;98717.44;10108994;29;20061;-80
2021/11/14 23:41:03;;;;;;;57.63;30.00;;;;;;;6.89;76.21;98716.69;10134114;29;20111;-79
2021/11/14 23:46:24;;;;;;;56.75;30.63;;;;;;;6.88;76.21;98713.16;10121539;29;20056;-80
2021/11/14 23:51:45;;;;;;;62.22;31.80;;;;;;;6.83;76.14;98705.72;10133936;29;20051;-79
2021/11/14 23:57:06;;;;;;;59.25;31.10;;;;;;;6.81;76.09;98708.31;10108234;29;20049;-79
